Data for 08/24/2007

Time Sea-Level Adjusted Pressure Absolute Pressure Temperature Relative Humidity Dew Point   
(mb) (inHg) (mb) (inHg) (C) (F) (%) (C) (F)
00:05 1018 30.06 847 25.01 10.1 50.2 77 6.4 43.4
00:10 1018 30.06 847 25.01 10.1 50.1 77 6.3 43.3
00:15 1018 30.06 847 25.01 10.3 50.5 76 6.2 43.1
00:20 1018 30.06 847 25.01 10.4 50.7 75 6.1 43
00:25 1018 30.06 847 25.01 10.5 50.9 73 6 42.8
00:30 1018 30.06 847 25.01 10.5 50.9 74 6.1 43
00:35 1018 30.06 847 25.01 10.2 50.3 77 6.4 43.5
00:40 1018 30.06 847 25.01 9.9 49.9 77 6.2 43.1
00:45 1018 30.06 847 25.01 9.8 49.7 79 6.3 43.3
00:50 1018 30.06 847 25.01 9.7 49.5 79 6.2 43.2
00:55 1018 30.06 847 25.01 9.6 49.3 79 6.2 43.1
01:00 1018 30.06 847 25.01 9.4 48.9 81 6.3 43.3
01:05 1018 30.06 847 25.01 9.2 48.5 81 6.2 43.1
01:10 1018 30.06 847 25.01 9.1 48.4 81 6.1 42.9
01:15 1018 30.06 847 25.01 9 48.1 82 6 42.8
01:20 1018 30.06 847 25.01 9 48.1 81 5.9 42.6
01:25 1018 30.06 847 25.01 9.1 48.3 81 6 42.9
01:30 1018 30.06 848 25.04 9.1 48.4 81 6 42.7
01:35 1018 30.06 848 25.04 9.4 48.8 79 6 42.7
01:40 1018 30.06 848 25.04 9.7 49.4 78 6.1 42.9
01:45 1019 30.09 848 25.04 10 50 77 6.1 43.1
01:50 1019 30.09 848 25.04 10.1 50.3 76 6.2 43.1
01:55 1019 30.09 848 25.04 9.9 49.9 78 6.2 43.2
02:00 1019 30.09 848 25.04 10 50 77 6.2 43.1
02:05 1019 30.09 848 25.04 10 50 76 6 42.8
02:10 1019 30.09 848 25.04 9.8 49.6 78 6.2 43.2
02:15 1019 30.09 848 25.04 9.6 49.2 78 5.8 42.5
02:20 1018 30.06 848 25.04 9.6 49.2 77 5.8 42.5
02:25 1018 30.06 848 25.04 9.4 48.8 77 5.6 42.1
02:30 1018 30.06 848 25.04 9.6 49.2 75 5.3 41.6
02:35 1019 30.09 848 25.04 10.2 50.3 73 5.6 42.1
02:40 1019 30.09 848 25.04 10.2 50.3 74 5.8 42.5
02:45 1019 30.09 848 25.04 10.3 50.5 75 6 42.9
02:50 1019 30.09 848 25.04 10.1 50.2 75 5.9 42.6
02:55 1019 30.09 848 25.04 9.8 49.6 75 5.6 42.1
03:00 1019 30.09 848 25.04 9.7 49.4 75 5.4 41.8
03:05 1019 30.09 848 25.04 9.8 49.7 77 6 42.9
03:10 1019 30.09 848 25.04 9.6 49.3 80 6.4 43.5
03:15 1019 30.09 848 25.04 9.6 49.3 80 6.3 43.4
03:20 1019 30.09 848 25.04 9.4 48.9 80 6.2 43.1
03:25 1019 30.09 848 25.04 9.1 48.5 80 5.9 42.7
03:30 1019 30.09 848 25.04 9 48.2 81 5.9 42.7
03:35 1019 30.09 848 25.04 8.9 47.9 82 5.9 42.6
03:40 1019 30.09 848 25.04 8.8 47.9 83 6.1 42.9
03:45 1019 30.09 848 25.04 8.8 47.9 83 6.1 42.9
03:50 1019 30.09 848 25.04 8.8 47.9 82 6 42.8
03:55 1019 30.09 848 25.04 8.9 48 82 6 42.8
04:00 1019 30.09 848 25.04 9 48.2 81 5.9 42.7
04:05 1019 30.09 848 25.04 9.1 48.4 80 5.9 42.7
04:10 1019 30.09 848 25.04 9.2 48.6 79 5.7 42.3
04:15 1019 30.09 848 25.04 9.3 48.7 79 5.8 42.5
04:20 1019 30.09 848 25.04 9.2 48.5 80 5.9 42.6
04:25 1019 30.09 848 25.04 9.1 48.3 79 5.6 42
04:30 1019 30.09 848 25.04 8.9 47.9 79 5.5 41.9
04:35 1019 30.09 848 25.04 8.8 47.9 79 5.4 41.8
04:40 1019 30.09 848 25.04 8.8 47.9 80 5.5 42
04:45 1019 30.09 848 25.04 8.7 47.7 80 5.5 41.8
04:50 1019 30.09 848 25.04 8.6 47.4 81 5.4 41.8
04:55 1019 30.09 848 25.04 8.3 46.9 81 5.3 41.5
05:00 1019 30.09 848 25.04 8.4 47 82 5.4 41.8
05:05 1019 30.09 848 25.04 8.6 47.5 81 5.5 41.9
05:10 1019 30.09 848 25.04 8.6 47.4 80 5.3 41.6
05:15 1019 30.09 848 25.04 8.6 47.5 80 5.3 41.5
05:20 1019 30.09 848 25.04 8.5 47.4 79 5.1 41.2
05:25 1019 30.09 848 25.04 8.5 47.4 79 5.1 41.2
05:30 1019 30.09 848 25.04 8.5 47.4 78 4.9 40.8
05:35 1019 30.09 848 25.04 8.4 47 80 5.1 41.2
05:40 1019 30.09 848 25.04 8.4 47.1 79 4.9 40.8
05:45 1019 30.09 848 25.04 8.4 47 77 4.6 40.4
05:50 1019 30.09 848 25.04 8.1 46.5 79 4.7 40.4
05:55 1019 30.09 849 25.07 8 46.3 79 4.5 40.1
06:00 1019 30.09 849 25.07 8 46.4 78 4.5 40.1
06:05 1019 30.09 849 25.07 7.9 46.2 79 4.5 40.1
06:10 1019 30.09 849 25.07 7.7 45.9 80 4.5 40.1
06:15 1019 30.09 849 25.07 7.4 45.4 81 4.4 39.9
06:20 1019 30.09 849 25.07 7.4 45.3 82 4.4 40
06:25 1019 30.09 849 25.07 7.4 45.3 80 4.2 39.6
06:30 1019 30.09 849 25.07 7.7 45.8 80 4.4 39.9
06:35 1020 30.12 849 25.07 7.8 46 80 4.6 40.3
06:40 1020 30.12 849 25.07 7.7 45.8 80 4.4 39.9
06:45 1020 30.12 849 25.07 6.9 44.4 85 4.5 40.1
06:50 1020 30.12 849 25.07 6.7 44 86 4.5 40
06:55 1020 30.12 849 25.07 6.7 44 86 4.5 40
07:00 1020 30.12 849 25.07 6.6 43.8 86 4.4 40
07:05 1020 30.12 849 25.07 6.6 43.8 86 4.5 40
07:10 1020 30.12 849 25.07 6.9 44.3 86 4.6 40.3
07:15 1020 30.12 849 25.07 7.2 44.9 84 4.7 40.5
07:20 1020 30.12 849 25.07 7.4 45.4 83 4.8 40.6
07:25 1020 30.12 849 25.07 7.7 45.8 82 4.8 40.6
07:30 1020 30.12 849 25.07 7.8 46.1 81 4.7 40.5
07:35 1020 30.12 849 25.07 7.9 46.1 80 4.7 40.4
07:40 1020 30.12 849 25.07 7.9 46.1 80 4.6 40.3
07:45 1020 30.12 849 25.07 8 46.4 80 4.7 40.5
07:50 1020 30.12 849 25.07 8.3 46.9 79 4.8 40.6
07:55 1020 30.12 849 25.07 8.4 47.1 80 5.1 41.1
08:00 1020 30.12 849 25.07 8.7 47.7 78 5.1 41.3
08:05 1020 30.12 849 25.07 9.4 48.9 75 5.3 41.5
08:10 1020 30.12 849 25.07 9.8 49.6 73 5.3 41.5
08:15 1020 30.12 849 25.07 9.7 49.5 73 5.2 41.3
08:20 1020 30.12 849 25.07 9.7 49.5 74 5.4 41.7
08:25 1020 30.12 849 25.07 10.2 50.4 72 5.5 41.9
08:30 1020 30.12 849 25.07 10.9 51.7 70 5.8 42.4
08:35 1020 30.12 849 25.07 11.3 52.4 68 5.6 42.1
08:40 1020 30.12 849 25.07 11.4 52.5 68 5.9 42.5
08:45 1020 30.12 849 25.07 11.5 52.6 67 5.7 42.2
08:50 1020 30.12 849 25.07 11.9 53.5 66 5.7 42.3
08:55 1020 30.12 850 25.1 12.3 54.1 64 5.6 42.1
09:00 1020 30.12 850 25.1 12.2 53.9 64 5.7 42.3
09:05 1020 30.12 850 25.1 12.2 53.9 66 6 42.9
09:10 1020 30.12 850 25.1 12.8 55.1 62 5.7 42.3
09:15 1020 30.12 849 25.07 13 55.4 62 6 42.9
09:20 1020 30.12 849 25.07 12.9 55.2 62 5.9 42.7
09:25 1020 30.12 849 25.07 13.1 55.5 61 5.8 42.5
09:30 1020 30.12 849 25.07 13.3 55.9 59 5.5 42
09:35 1020 30.12 849 25.07 14 57.3 58 6 42.7
09:40 1020 30.12 849 25.07 14.8 58.6 55 6 42.8
09:45 1020 30.12 849 25.07 14.8 58.6 58 6.6 43.8
09:50 1020 30.12 849 25.07 13.9 57.1 57 5.7 42.3
09:55 1020 30.12 849 25.07 14.5 58.2 55 5.7 42.3
10:00 1020 30.12 849 25.07 15.3 59.6 55 6.3 43.4
10:05 1020 30.12 849 25.07 15.1 59.2 55 6.1 43
10:10 1020 30.12 849 25.07 15.4 59.6 53 6 42.8
10:15 1020 30.12 849 25.07 15.3 59.6 54 6.1 43
10:20 1020 30.12 849 25.07 15.1 59.1 54 5.9 42.5
10:25 1020 30.12 849 25.07 15.4 59.7 54 6.1 43
10:30 1020 30.12 849 25.07 16.1 61.1 51 6.1 43
10:35 1020 30.12 849 25.07 16.2 61.1 51 6.1 43.1
10:40 1020 30.12 849 25.07 16.6 61.9 49 5.9 42.6
10:45 1020 30.12 849 25.07 16.8 62.3 49 6.2 43.2
10:50 1020 30.12 849 25.07 16.3 61.3 51 6.2 43.2
10:55 1020 30.12 849 25.07 17 62.6 48 5.9 42.6
11:00 1020 30.12 849 25.07 17.4 63.3 47 6.1 42.9
11:05 1020 30.12 849 25.07 17.8 64.1 44 5.6 42
11:10 1020 30.12 849 25.07 17.6 63.6 47 6.3 43.3
11:15 1020 30.12 849 25.07 17.4 63.3 45 5.4 41.8
11:20 1020 30.12 849 25.07 17.6 63.6 45 5.6 42.1
11:25 1020 30.12 849 25.07 18.2 64.7 44 5.8 42.4
11:30 1020 30.12 849 25.07 17.9 64.3 45 6 42.7
11:35 1020 30.12 849 25.07 18.3 64.9 43 5.5 42
11:40 1020 30.12 849 25.07 18.7 65.6 42 5.7 42.3
11:45 1020 30.12 849 25.07 18.8 65.8 42 5.7 42.3
11:50 1020 30.12 849 25.07 18.9 66 42 5.8 42.5
11:55 1020 30.12 849 25.07 18.5 65.3 45 6.3 43.4
12:00 1020 30.12 849 25.07 18.1 64.5 44 5.6 42.1
12:05 1020 30.12 849 25.07 18.8 65.8 40 5 41
12:10 1020 30.12 849 25.07 19.2 66.6 38 4.6 40.2
12:15 1020 30.12 849 25.07 19.1 66.3 40 5.2 41.3
12:20 1020 30.12 849 25.07 19.1 66.3 40 5.2 41.4
12:25 1020 30.12 849 25.07 19 66.1 37 4 39.2
12:30 1020 30.12 849 25.07 19.6 67.2 36 4.2 39.6
12:35 1020 30.12 849 25.07 19.8 67.6 36 4.3 39.7
12:40 1020 30.12 849 25.07 19.2 66.5 35 3.3 38
12:45 1020 30.12 849 25.07 19.4 66.9 33 2.9 37.2
12:50 1020 30.12 849 25.07 20.1 68.3 29 1.8 35.3
12:55 1020 30.12 849 25.07 20.4 68.7 32 3.1 37.7
13:00 1020 30.12 849 25.07 19.5 67.2 36 4.1 39.4
13:05 1020 30.12 849 25.07 19.6 67.3 33 3.1 37.5
13:10 1019 30.09 849 25.07 20.2 68.3 32 3.1 37.6
13:15 1019 30.09 849 25.07 19.9 67.8 32 3 37.4
13:20 1019 30.09 848 25.04 20.6 69 29 2 35.7
13:25 1019 30.09 848 25.04 20.7 69.2 30 2.8 37
13:30 1019 30.09 848 25.04 19.4 66.9 34 3.2 37.8
13:35 1019 30.09 848 25.04 19.2 66.6 31 2 35.6
13:40 1019 30.09 848 25.04 18.6 65.4 32 1.8 35.3
13:45 1019 30.09 848 25.04 19.5 67.1 30 1.5 34.7
13:50 1019 30.09 848 25.04 20.3 68.5 28 1.2 34.1
13:55 1019 30.09 848 25.04 20.6 69.2 26 0.6 33
14:00 1019 30.09 848 25.04 20.8 69.4 28 2 35.7
14:05 1019 30.09 848 25.04 21.4 70.6 26 1.5 34.8
14:10 1019 30.09 848 25.04 21.6 70.9 26 1.4 34.5
14:15 1019 30.09 848 25.04 21.7 71.1 26 1.4 34.4
14:20 1019 30.09 848 25.04 21.6 70.9 27 2.1 35.7
14:25 1019 30.09 848 25.04 21.6 70.9 27 2 35.5
14:30 1019 30.09 848 25.04 21.4 70.6 27 2 35.6
14:35 1019 30.09 848 25.04 21.7 71.1 26 1.5 34.7
14:40 1019 30.09 848 25.04 21.4 70.5 27 2 35.6
14:45 1019 30.09 848 25.04 20.4 68.7 29 2 35.5
14:50 1019 30.09 848 25.04 20.6 69.2 28 1.9 35.4
14:55 1019 30.09 848 25.04 20.5 68.9 29 2.1 35.8
15:00 1019 30.09 848 25.04 20.7 69.2 28 1.7 35
15:05 1019 30.09 848 25.04 21.3 70.3 27 1.7 35.1
15:10 1019 30.09 848 25.04 21.2 70.1 28 1.9 35.4
15:15 1019 30.09 848 25.04 21.5 70.8 27 2.1 35.7
15:20 1019 30.09 848 25.04 22 71.5 27 2.3 36.1
15:25 1019 30.09 848 25.04 22.4 72.2 25 1.4 34.5
15:30 1019 30.09 848 25.04 21.1 70 27 1.7 35.1
15:35 1019 30.09 848 25.04 21.7 71 27 2 35.6
15:40 1019 30.09 848 25.04 21.6 70.8 28 2.2 36
15:45 1018 30.06 848 25.04 21.9 71.4 26 1.9 35.5
15:50 1018 30.06 848 25.04 21.7 71 28 2.4 36.4
15:55 1018 30.06 848 25.04 21.7 71.1 27 1.9 35.4
16:00 1018 30.06 848 25.04 22.3 72.2 26 1.9 35.4
16:05 1018 30.06 848 25.04 22.4 72.3 26 2.2 35.9
16:10 1018 30.06 848 25.04 21.9 71.4 27 2.2 36
16:15 1018 30.06 848 25.04 21.6 70.9 26 1.5 34.8
16:20 1018 30.06 847 25.01 22 71.6 26 1.9 35.4
16:25 1018 30.06 847 25.01 22.7 72.8 26 2.6 36.7
16:30 1018 30.06 847 25.01 22.9 73.3 25 1.8 35.2
16:35 1018 30.06 847 25.01 23.2 73.8 24 1.7 35
16:40 1018 30.06 847 25.01 23.5 74.4 24 1.7 35.1
16:45 1018 30.06 847 25.01 23.9 75 24 2.3 36.2
16:50 1018 30.06 847 25.01 23.8 74.8 23 1.9 35.4
16:55 1018 30.06 847 25.01 22.4 72.4 26 2.1 35.7
17:00 1018 30.06 847 25.01 21.8 71.2 26 1.4 34.5
17:05 1018 30.06 847 25.01 22 71.7 26 1.8 35.2
17:10 1018 30.06 847 25.01 23 73.3 24 1.7 35.1
17:15 1018 30.06 847 25.01 22.8 73.1 25 2 35.6
17:20 1018 30.06 847 25.01 22.2 71.9 26 2.2 35.9
17:25 1018 30.06 847 25.01 21.5 70.7 27 1.8 35.3
17:30 1018 30.06 847 25.01 22.3 72.2 24 1 33.8
17:35 1018 30.06 847 25.01 22.4 72.4 25 1.5 34.7
17:40 1018 30.06 847 25.01 22.7 72.8 24 1.1 34
17:45 1018 30.06 847 25.01 23.1 73.5 23 1.2 34.2
17:50 1018 30.06 847 25.01 22.9 73.2 23 1.1 34
17:55 1018 30.06 847 25.01 22.9 73.1 23 0.9 33.6
18:00 1018 30.06 847 25.01 23 73.4 23 1 33.8
18:05 1018 30.06 847 25.01 22.9 73.3 22 0.2 32.3
18:10 1018 30.06 847 25.01 22.8 73 23 0.8 33.5
18:15 1018 30.06 847 25.01 22.7 72.8 23 0.9 33.7
18:20 1018 30.06 847 25.01 22.6 72.6 24 1.1 34
18:25 1018 30.06 847 25.01 22.3 72.1 24 1.2 34.1
18:30 1018 30.06 847 25.01 22 71.6 25 1.3 34.3
18:35 1018 30.06 847 25.01 21.4 70.5 25 0.8 33.4
18:40 1018 30.06 847 25.01 21.2 70.1 26 0.9 33.5
18:45 1018 30.06 847 25.01 21.3 70.3 25 0.8 33.4
18:50 1018 30.06 847 25.01 21.5 70.8 26 1.2 34.1
18:55 1018 30.06 847 25.01 21.5 70.7 24 0.5 32.9
19:00 1018 30.06 847 25.01 21.6 70.9 25 0.7 33.3
19:05 1018 30.06 847 25.01 21.3 70.4 25 0.8 33.5
19:10 1018 30.06 847 25.01 21 69.9 26 1 33.8
19:15 1018 30.06 847 25.01 21 69.9 26 1.1 34
19:20 1018 30.06 847 25.01 20.9 69.6 26 1 33.7
19:25 1018 30.06 847 25.01 21 69.9 25 0.3 32.6
19:30 1018 30.06 847 25.01 21 69.7 26 0.8 33.4
19:35 1018 30.06 847 25.01 20.9 69.6 26 1 33.8
19:40 1018 30.06 847 25.01 20.8 69.4 27 1.1 34.1
19:45 1018 30.06 847 25.01 20.7 69.3 27 1 33.8
19:50 1018 30.06 847 25.01 20.6 69.1 26 0.8 33.4
19:55 1018 30.06 847 25.01 20.5 69 27 1 33.7
20:00 1018 30.06 847 25.01 20.5 68.9 27 1.1 34
20:05 1018 30.06 847 25.01 20.3 68.6 30 2.6 36.6
20:10 1018 30.06 847 25.01 20.1 68.2 29 1.9 35.4
20:15 1018 30.06 847 25.01 20.1 68.1 30 2.3 36.1
20:20 1018 30.06 847 25.01 19.7 67.5 36 4.2 39.6
20:25 1018 30.06 847 25.01 18.8 65.9 39 4.6 40.3
20:30 1018 30.06 847 25.01 18.1 64.7 45 6.1 42.9
20:35 1018 30.06 847 25.01 17.5 63.4 43 4.8 40.7
20:40 1018 30.06 847 25.01 16.6 61.9 45 4.8 40.6
20:45 1018 30.06 847 25.01 16.3 61.4 45 4.4 39.9
20:50 1018 30.06 847 25.01 15.9 60.6 47 4.6 40.3
20:55 1018 30.06 847 25.01 15.3 59.6 49 4.9 40.7
21:00 1018 30.06 847 25.01 14.9 58.9 51 4.8 40.7
21:05 1018 30.06 847 25.01 14.6 58.3 50 4.4 40
21:10 1018 30.06 847 25.01 14.5 58 48 3.7 38.7
21:15 1018 30.06 847 25.01 14.3 57.7 47 3.2 37.7
21:20 1018 30.06 847 25.01 14.3 57.7 46 2.9 37.1
21:25 1018 30.06 847 25.01 14.3 57.7 45 2.5 36.5
21:30 1018 30.06 847 25.01 14.7 58.4 43 2.3 36.1
21:35 1018 30.06 847 25.01 15 59 43 2.5 36.4
21:40 1018 30.06 847 25.01 15.1 59.1 42 2.5 36.5
21:45 1018 30.06 847 25.01 15 59 43 2.5 36.5
21:50 1018 30.06 847 25.01 14.7 58.5 44 2.6 36.6
21:55 1018 30.06 847 25.01 14.6 58.2 44 2.4 36.4
22:00 1018 30.06 847 25.01 14.5 58 44 2.4 36.4
22:05 1018 30.06 847 25.01 14.4 57.9 43 2.1 35.8
22:10 1018 30.06 847 25.01 14.4 57.9 44 2.3 36.1
22:15 1018 30.06 847 25.01 14.2 57.6 44 2.1 35.8
22:20 1018 30.06 847 25.01 14.1 57.4 45 2.3 36.2
22:25 1018 30.06 847 25.01 14 57.3 47 3.1 37.6
22:30 1018 30.06 847 25.01 14.1 57.4 44 2 35.6
22:35 1018 30.06 847 25.01 14 57.3 44 2 35.7
22:40 1018 30.06 847 25.01 14.1 57.3 44 2.1 35.8
22:45 1018 30.06 847 25.01 14.1 57.3 43 1.9 35.5
22:50 1018 30.06 847 25.01 14.1 57.4 43 1.8 35.2
22:55 1018 30.06 847 25.01 14.2 57.5 42 1.5 34.7
23:00 1018 30.06 847 25.01 14.2 57.5 42 1.6 34.9
23:05 1018 30.06 847 25.01 14.3 57.7 42 1.6 35
23:10 1018 30.06 847 25.01 14.3 57.7 42 1.7 35.1
23:15 1018 30.06 847 25.01 14.1 57.3 43 1.7 35
23:20 1018 30.06 847 25.01 13.9 57 44 1.9 35.4
23:25 1018 30.06 847 25.01 13.6 56.4 46 2.1 35.8
23:30 1018 30.06 847 25.01 13.3 55.9 46 1.9 35.3
23:35 1018 30.06 847 25.01 13.4 56.2 45 1.9 35.5
23:40 1017 30.03 847 25.01 13.4 56.1 45 1.8 35.3
23:45 1017 30.03 847 25.01 13.5 56.2 45 1.8 35.3
23:50 1017 30.03 847 25.01 13.3 56 46 2 35.6
23:55 1017 30.03 847 25.01 13.2 55.8 46 2.1 35.7
24:00 1017 30.03 847 25.01 13.3 55.9 45 1.6 35